createdAt,value
2018-01-22T00:02:26.395Z,2.70
2018-01-22T00:07:29.573Z,2.80
2018-01-22T00:12:32.312Z,2.97
2018-01-22T00:17:34.966Z,3.30
2018-01-22T00:22:38.977Z,3.77
2018-01-22T00:27:41.588Z,3.33
2018-01-22T00:32:44.849Z,3.80
2018-01-22T00:37:47.774Z,2.67
2018-01-22T00:42:50.302Z,3.40
2018-01-22T00:47:54.037Z,3.53
2018-01-22T00:52:56.650Z,2.90
2018-01-22T00:57:59.172Z,3.57
2018-01-22T01:03:02.379Z,2.97
2018-01-22T01:08:05.647Z,2.60
2018-01-22T01:13:09.058Z,3.33
2018-01-22T01:18:11.766Z,2.97
2018-01-22T01:23:14.333Z,2.73
2018-01-22T01:28:17.240Z,2.73
2018-01-22T01:33:19.743Z,3.13
2018-01-22T01:38:23.199Z,2.40
2018-01-22T01:43:26.264Z,3.10
2018-01-22T01:48:29.538Z,2.83
2018-01-22T01:53:32.063Z,2.70
2018-01-22T01:58:35.475Z,3.63
2018-01-22T02:03:38.746Z,3.20
2018-01-22T02:08:41.822Z,2.70
2018-01-22T02:13:44.484Z,3.23
2018-01-22T02:18:47.385Z,2.60
2018-01-22T02:23:49.923Z,2.70
2018-01-22T02:28:52.537Z,2.57
2018-01-22T02:33:55.832Z,2.60
2018-01-22T02:38:59.106Z,2.70
2018-01-22T02:44:03.187Z,2.00
2018-01-22T02:49:05.683Z,2.80
2018-01-22T02:54:08.222Z,2.93
2018-01-22T02:59:11.635Z,2.80
2018-01-22T03:04:14.979Z,2.53
2018-01-22T03:09:17.751Z,3.37
2018-01-22T03:14:21.499Z,2.07
2018-01-22T03:19:24.060Z,2.37
2018-01-22T03:24:27.061Z,2.70
2018-01-22T03:29:30.484Z,2.27
2018-01-22T03:34:33.766Z,2.30
2018-01-22T03:39:36.283Z,2.30
2018-01-22T03:44:39.713Z,2.10
2018-01-22T03:49:42.836Z,2.30
2018-01-22T03:54:45.502Z,2.53
2018-01-22T03:59:48.092Z,2.90
2018-01-22T04:04:50.662Z,2.70
2018-01-22T04:09:53.422Z,2.23
2018-01-22T04:14:56.195Z,2.10
2018-01-22T04:19:59.526Z,2.40
2018-01-22T04:25:02.114Z,2.43
2018-01-22T04:30:05.098Z,2.47
2018-01-22T04:35:08.420Z,2.20
2018-01-22T04:40:11.710Z,2.60
2018-01-22T04:45:14.250Z,3.03
2018-01-22T04:50:16.849Z,2.07
2018-01-22T04:55:19.371Z,3.03
2018-01-22T05:00:22.380Z,3.10
2018-01-22T05:05:25.498Z,2.47
2018-01-22T05:10:28.607Z,2.87
2018-01-22T05:15:31.174Z,2.20
2018-01-22T05:20:35.127Z,2.40
2018-01-22T05:25:37.744Z,2.30
2018-01-22T05:30:40.532Z,2.57
2018-01-22T05:35:44.068Z,2.33
2018-01-22T05:40:46.600Z,2.00
2018-01-22T05:45:49.202Z,2.57
2018-01-22T05:50:52.199Z,2.50
2018-01-22T05:55:54.746Z,2.40
2018-01-22T06:00:57.339Z,3.20
2018-01-22T06:06:01.371Z,2.73
2018-01-22T06:11:04.798Z,2.50
2018-01-22T06:16:07.443Z,2.20
2018-01-22T06:21:09.951Z,4.60
2018-01-22T06:26:12.769Z,4.30
2018-01-22T06:31:15.277Z,3.30
2018-01-22T06:36:17.836Z,4.10
2018-01-22T06:41:21.391Z,4.23
2018-01-22T06:46:23.960Z,2.67
2018-01-22T06:51:27.323Z,2.93
2018-01-22T06:56:30.044Z,2.13
2018-01-22T07:01:32.563Z,2.90
2018-01-22T07:06:35.925Z,2.40
2018-01-22T07:11:38.469Z,2.60
2018-01-22T07:16:42.013Z,2.30
2018-01-22T07:21:44.561Z,2.30
2018-01-22T07:26:47.683Z,1.90
2018-01-22T07:31:50.375Z,1.93
2018-01-22T07:36:53.098Z,2.47
2018-01-22T07:41:57.009Z,1.60
2018-01-22T07:47:00.397Z,1.83
2018-01-22T07:52:03.748Z,2.20
2018-01-22T07:57:07.342Z,1.67
2018-01-22T08:02:09.885Z,1.93
2018-01-22T08:07:13.386Z,1.63
2018-01-22T08:12:17.823Z,1.60
2018-01-22T08:17:21.880Z,1.40
2018-01-22T08:22:25.686Z,2.60
2018-01-22T08:27:29.006Z,1.30
2018-01-22T08:32:31.541Z,1.40
2018-01-22T08:37:34.158Z,1.60
2018-01-22T08:42:37.621Z,1.33
2018-01-22T08:47:40.305Z,1.27
2018-01-22T08:52:42.982Z,1.10
2018-01-22T08:57:45.532Z,2.07
2018-01-22T09:02:48.171Z,2.03
2018-01-22T09:07:50.696Z,2.30
2018-01-22T09:12:54.704Z,2.40
2018-01-22T09:17:57.223Z,2.63
2018-01-22T09:22:59.787Z,3.50
2018-01-22T09:28:03.053Z,3.60
2018-01-22T09:33:05.830Z,3.23
2018-01-22T09:38:08.327Z,3.27
2018-01-22T09:43:11.553Z,3.13
2018-01-22T09:48:14.276Z,3.50
2018-01-22T09:53:16.812Z,3.20
2018-01-22T09:58:19.362Z,3.60
2018-01-22T10:03:22.322Z,4.07
2018-01-22T10:08:25.490Z,4.17
2018-01-22T10:13:28.777Z,3.73
2018-01-22T10:18:31.544Z,4.27
2018-01-22T10:23:34.108Z,3.50
2018-01-22T10:28:37.670Z,4.30
2018-01-22T10:33:40.353Z,3.67
2018-01-22T10:38:42.934Z,3.73
2018-01-22T10:43:45.478Z,4.00
2018-01-22T10:48:49.476Z,3.63
2018-01-22T10:53:52.781Z,3.77
2018-01-22T10:58:56.134Z,4.07
2018-01-22T11:03:58.675Z,3.40
2018-01-22T11:09:01.906Z,3.27
2018-01-22T11:14:04.921Z,3.40
2018-01-22T11:19:08.012Z,3.73
2018-01-22T11:24:10.812Z,3.80
2018-01-22T11:29:13.885Z,3.70
2018-01-22T11:34:17.144Z,3.53
2018-01-22T11:39:19.663Z,3.80
2018-01-22T11:44:23.596Z,4.87
2018-01-22T11:49:27.101Z,3.77
2018-01-22T11:54:29.688Z,3.70
2018-01-22T11:59:33.365Z,3.50
2018-01-22T12:04:35.883Z,4.17
2018-01-22T12:09:39.414Z,4.00
2018-01-22T12:14:43.241Z,3.47
2018-01-22T12:19:45.861Z,3.80
2018-01-22T12:24:49.313Z,4.03
2018-01-22T12:29:52.323Z,3.30
2018-01-22T12:34:54.853Z,3.40
2018-01-22T12:39:59.063Z,3.73
2018-01-22T12:45:01.877Z,3.90
2018-01-22T12:50:04.429Z,3.80
2018-01-22T12:55:07.111Z,3.67
2018-01-22T13:00:09.697Z,3.83
2018-01-22T13:05:13.391Z,3.17
2018-01-22T13:10:16.223Z,3.10
2018-01-22T13:15:19.939Z,3.00
2018-01-22T13:20:23.260Z,2.90
2018-01-22T13:25:26.572Z,3.43
2018-01-22T13:30:29.262Z,3.90
2018-01-22T13:35:32.118Z,3.50
2018-01-22T13:40:40.415Z,3.47
2018-01-22T13:45:42.993Z,3.40
2018-01-22T13:50:45.513Z,2.93
2018-01-22T13:55:49.000Z,3.30
2018-01-22T14:00:52.944Z,3.50
2018-01-22T14:05:55.728Z,3.20
2018-01-22T14:10:58.507Z,2.87
2018-01-22T14:16:01.874Z,3.40
2018-01-22T14:21:04.444Z,3.40
2018-01-22T14:26:06.980Z,4.03
2018-01-22T14:31:09.774Z,3.17
2018-01-22T14:36:12.466Z,3.60
2018-01-22T14:41:15.046Z,3.13
2018-01-22T14:46:18.069Z,3.00
2018-01-22T14:51:21.522Z,3.50
2018-01-22T14:56:24.125Z,3.30
2018-01-22T15:01:27.098Z,3.47
2018-01-22T15:06:29.692Z,3.17
2018-01-22T15:11:32.926Z,3.33
2018-01-22T15:16:35.847Z,2.83
2018-01-22T15:21:38.572Z,2.57
2018-01-22T15:26:41.089Z,2.73
2018-01-22T15:31:43.942Z,2.50
2018-01-22T15:36:46.543Z,2.47
2018-01-22T15:41:49.145Z,2.00
2018-01-22T15:46:51.703Z,2.50
2018-01-22T15:51:54.316Z,2.17
2018-01-22T15:56:56.847Z,2.00
2018-01-22T16:01:59.383Z,2.03
2018-01-22T16:07:03.071Z,2.07
2018-01-22T16:12:05.830Z,2.20
2018-01-22T16:17:08.452Z,2.27
2018-01-22T16:22:10.952Z,1.77
2018-01-22T16:27:13.615Z,1.97
2018-01-22T16:32:16.306Z,1.80
2018-01-22T16:37:19.714Z,1.80
2018-01-22T16:42:22.410Z,2.37
2018-01-22T16:47:30.729Z,2.50
2018-01-22T16:52:33.352Z,2.00
2018-01-22T16:57:37.243Z,2.40
2018-01-22T17:02:39.847Z,1.53
2018-01-22T17:07:42.785Z,2.27
2018-01-22T17:12:45.546Z,2.50
2018-01-22T17:17:49.112Z,2.10
2018-01-22T17:22:52.935Z,2.07
2018-01-22T17:27:55.989Z,6.40
2018-01-22T17:32:58.911Z,12.40
2018-01-22T17:38:01.487Z,11.43
2018-01-22T17:43:04.058Z,10.03
2018-01-22T17:48:06.979Z,9.27
2018-01-22T17:53:10.089Z,8.17
2018-01-22T17:58:12.678Z,7.90
2018-01-22T18:03:15.297Z,6.83
2018-01-22T18:08:17.872Z,7.10
2018-01-22T18:13:21.066Z,6.70
2018-01-22T18:18:23.651Z,6.43
2018-01-22T18:23:27.071Z,5.70
2018-01-22T18:28:30.685Z,4.80
2018-01-22T18:33:33.272Z,6.30
2018-01-22T18:38:36.012Z,5.30
2018-01-22T18:43:38.563Z,5.10
2018-01-22T18:48:41.613Z,5.03
2018-01-22T18:53:44.172Z,4.50
2018-01-22T18:58:46.747Z,4.30
2018-01-22T19:03:49.389Z,3.70
2018-01-22T19:08:52.837Z,3.93
2018-01-22T19:13:55.395Z,3.70
2018-01-22T19:18:57.910Z,3.93
2018-01-22T19:24:01.340Z,3.90
2018-01-22T19:29:04.024Z,4.77
2018-01-22T19:34:07.707Z,3.60
2018-01-22T19:39:10.328Z,4.87
2018-01-22T21:22:32.725Z,4.03
2018-01-22T21:27:35.244Z,4.93
2018-01-22T21:32:38.465Z,5.00
2018-01-22T21:37:41.253Z,4.87
2018-01-22T21:42:44.420Z,4.40
2018-01-22T21:47:47.490Z,4.90
2018-01-22T21:52:50.710Z,5.23
2018-01-22T21:57:54.798Z,4.60
2018-01-22T22:02:58.010Z,5.30
2018-01-22T22:08:01.375Z,5.10
2018-01-22T22:13:04.330Z,4.83
2018-01-22T22:18:07.046Z,5.13
2018-01-22T22:23:09.709Z,5.77
2018-01-22T22:28:13.200Z,4.77
2018-01-22T22:33:15.751Z,5.60
2018-01-22T22:38:18.988Z,4.87
2018-01-22T22:43:21.603Z,5.50
2018-01-22T22:48:25.757Z,5.63
2018-01-22T22:53:29.248Z,7.90
2018-01-22T22:58:31.853Z,6.30
2018-01-22T23:03:34.907Z,7.00
2018-01-22T23:08:37.734Z,7.63
2018-01-22T23:13:40.466Z,6.97
2018-01-22T23:18:43.764Z,7.03
2018-01-22T23:23:47.471Z,6.50
2018-01-22T23:28:50.122Z,6.50
2018-01-22T23:33:52.824Z,6.50
2018-01-22T23:38:56.205Z,7.90
2018-01-22T23:43:59.471Z,6.57
2018-01-22T23:49:02.689Z,7.10
2018-01-22T23:54:05.490Z,5.70
2018-01-22T23:59:08.044Z,6.70
